sensor_id;sensor_type;location;lat;lon;timestamp;temperature;humidity
15296;DHT22;7749;49.964;7.890;2023-07-31T00:00:55;19.80;99.90
15296;DHT22;7749;49.964;7.890;2023-07-31T00:03:22;19.80;99.90
15296;DHT22;7749;49.964;7.890;2023-07-31T00:05:50;19.80;99.90
15296;DHT22;7749;49.964;7.890;2023-07-31T00:08:17;19.80;99.90
15296;DHT22;7749;49.964;7.890;2023-07-31T00:10:44;19.80;21.50
15296;DHT22;7749;49.964;7.890;2023-07-31T00:13:12;19.80;99.90
15296;DHT22;7749;49.964;7.890;2023-07-31T00:15:39;19.70;99.90
15296;DHT22;7749;49.964;7.890;2023-07-31T00:18:07;19.70;99.90
15296;DHT22;7749;49.964;7.890;2023-07-31T00:20:34;19.70;99.90
15296;DHT22;7749;49.964;7.890;2023-07-31T00:23:02;19.70;99.90
15296;DHT22;7749;49.964;7.890;2023-07-31T00:25:29;19.70;99.90
15296;DHT22;7749;49.964;7.890;2023-07-31T00:27:57;19.70;99.90
15296;DHT22;7749;49.964;7.890;2023-07-31T00:30:24;19.70;99.90
15296;DHT22;7749;49.964;7.890;2023-07-31T00:32:52;19.80;99.90
15296;DHT22;7749;49.964;7.890;2023-07-31T00:35:20;19.70;99.90
15296;DHT22;7749;49.964;7.890;2023-07-31T00:37:47;19.70;99.90
15296;DHT22;7749;49.964;7.890;2023-07-31T00:40:15;19.70;99.90
15296;DHT22;7749;49.964;7.890;2023-07-31T00:42:42;19.70;99.90
15296;DHT22;7749;49.964;7.890;2023-07-31T00:45:10;19.70;99.60
15296;DHT22;7749;49.964;7.890;2023-07-31T00:47:37;19.70;99.90
15296;DHT22;7749;49.964;7.890;2023-07-31T00:50:06;19.70;94.80
15296;DHT22;7749;49.964;7.890;2023-07-31T00:52:35;19.70;1.00
15296;DHT22;7749;49.964;7.890;2023-07-31T00:55:04;19.70;1.00
15296;DHT22;7749;49.964;7.890;2023-07-31T00:57:32;19.60;1.00
15296;DHT22;7749;49.964;7.890;2023-07-31T01:00:00;19.60;1.00
15296;DHT22;7749;49.964;7.890;2023-07-31T01:02:28;19.60;1.00
15296;DHT22;7749;49.964;7.890;2023-07-31T01:04:56;19.60;42.40
15296;DHT22;7749;49.964;7.890;2023-07-31T01:07:45;19.70;99.90
15296;DHT22;7749;49.964;7.890;2023-07-31T01:10:24;19.70;99.90
15296;DHT22;7749;49.964;7.890;2023-07-31T01:12:53;19.70;99.90
15296;DHT22;7749;49.964;7.890;2023-07-31T01:15:23;19.70;99.90
15296;DHT22;7749;49.964;7.890;2023-07-31T01:17:51;19.80;99.90
15296;DHT22;7749;49.964;7.890;2023-07-31T01:20:23;19.80;99.90
15296;DHT22;7749;49.964;7.890;2023-07-31T01:31:00;19.80;99.90
15296;DHT22;7749;49.964;7.890;2023-07-31T01:33:29;19.80;99.90
15296;DHT22;7749;49.964;7.890;2023-07-31T01:35:57;19.80;1.00
15296;DHT22;7749;49.964;7.890;2023-07-31T01:38:25;19.80;99.90
15296;DHT22;7749;49.964;7.890;2023-07-31T01:40:53;19.80;99.90
15296;DHT22;7749;49.964;7.890;2023-07-31T01:43:20;19.70;99.90
15296;DHT22;7749;49.964;7.890;2023-07-31T01:45:48;19.70;99.90
15296;DHT22;7749;49.964;7.890;2023-07-31T01:48:15;19.70;99.90
15296;DHT22;7749;49.964;7.890;2023-07-31T01:50:43;19.60;99.90
15296;DHT22;7749;49.964;7.890;2023-07-31T01:53:10;19.60;99.90
15296;DHT22;7749;49.964;7.890;2023-07-31T01:55:39;19.60;99.90
15296;DHT22;7749;49.964;7.890;2023-07-31T01:58:06;19.60;99.90
15296;DHT22;7749;49.964;7.890;2023-07-31T02:00:34;19.70;99.90
15296;DHT22;7749;49.964;7.890;2023-07-31T02:03:01;19.70;99.90
15296;DHT22;7749;49.964;7.890;2023-07-31T02:05:29;19.70;99.90
15296;DHT22;7749;49.964;7.890;2023-07-31T02:07:56;19.60;99.90
15296;DHT22;7749;49.964;7.890;2023-07-31T02:10:24;19.60;99.90
15296;DHT22;7749;49.964;7.890;2023-07-31T02:12:51;19.60;99.90
15296;DHT22;7749;49.964;7.890;2023-07-31T02:15:18;19.50;1.00
15296;DHT22;7749;49.964;7.890;2023-07-31T02:17:46;19.60;1.00
15296;DHT22;7749;49.964;7.890;2023-07-31T02:20:13;19.50;1.00
15296;DHT22;7749;49.964;7.890;2023-07-31T02:22:41;19.60;1.00
15296;DHT22;7749;49.964;7.890;2023-07-31T02:25:08;19.60;1.00
15296;DHT22;7749;49.964;7.890;2023-07-31T02:27:36;19.60;1.00
15296;DHT22;7749;49.964;7.890;2023-07-31T02:30:03;19.50;1.00
15296;DHT22;7749;49.964;7.890;2023-07-31T02:32:31;19.50;1.00
15296;DHT22;7749;49.964;7.890;2023-07-31T02:34:58;19.50;1.00
15296;DHT22;7749;49.964;7.890;2023-07-31T02:37:26;19.60;1.00
15296;DHT22;7749;49.964;7.890;2023-07-31T02:39:55;19.60;1.00
15296;DHT22;7749;49.964;7.890;2023-07-31T02:42:23;19.60;1.00
15296;DHT22;7749;49.964;7.890;2023-07-31T02:44:50;19.60;1.00
15296;DHT22;7749;49.964;7.890;2023-07-31T02:47:22;19.50;1.00
15296;DHT22;7749;49.964;7.890;2023-07-31T02:49:50;19.50;1.00
15296;DHT22;7749;49.964;7.890;2023-07-31T02:52:17;19.50;1.00
15296;DHT22;7749;49.964;7.890;2023-07-31T02:54:45;19.50;1.00
15296;DHT22;7749;49.964;7.890;2023-07-31T02:57:12;19.40;1.00
15296;DHT22;7749;49.964;7.890;2023-07-31T02:59:40;19.40;1.00
15296;DHT22;7749;49.964;7.890;2023-07-31T03:02:07;19.30;1.00
15296;DHT22;7749;49.964;7.890;2023-07-31T03:04:35;19.30;1.00
15296;DHT22;7749;49.964;7.890;2023-07-31T03:07:02;19.40;1.00
15296;DHT22;7749;49.964;7.890;2023-07-31T03:09:30;19.40;1.00
15296;DHT22;7749;49.964;7.890;2023-07-31T03:11:59;19.40;1.00
15296;DHT22;7749;49.964;7.890;2023-07-31T03:14:26;19.40;1.00
15296;DHT22;7749;49.964;7.890;2023-07-31T03:16:54;19.40;1.00
15296;DHT22;7749;49.964;7.890;2023-07-31T03:19:21;19.40;1.00
15296;DHT22;7749;49.964;7.890;2023-07-31T03:21:49;19.40;1.00
15296;DHT22;7749;49.964;7.890;2023-07-31T03:24:16;19.40;1.00
15296;DHT22;7749;49.964;7.890;2023-07-31T03:26:44;19.40;1.00
15296;DHT22;7749;49.964;7.890;2023-07-31T03:29:11;19.30;1.00
15296;DHT22;7749;49.964;7.890;2023-07-31T03:31:38;19.20;1.00
15296;DHT22;7749;49.964;7.890;2023-07-31T03:34:06;19.20;1.00
15296;DHT22;7749;49.964;7.890;2023-07-31T03:36:33;19.10;1.00
15296;DHT22;7749;49.964;7.890;2023-07-31T03:39:01;19.20;1.00
15296;DHT22;7749;49.964;7.890;2023-07-31T03:41:28;19.20;1.00
15296;DHT22;7749;49.964;7.890;2023-07-31T03:43:56;19.20;1.00
15296;DHT22;7749;49.964;7.890;2023-07-31T03:46:24;19.20;1.00
15296;DHT22;7749;49.964;7.890;2023-07-31T03:48:51;19.20;1.00
15296;DHT22;7749;49.964;7.890;2023-07-31T03:51:19;19.20;1.00
15296;DHT22;7749;49.964;7.890;2023-07-31T03:53:46;19.20;1.00
15296;DHT22;7749;49.964;7.890;2023-07-31T03:56:14;19.20;1.00
15296;DHT22;7749;49.964;7.890;2023-07-31T03:58:41;19.20;1.00
15296;DHT22;7749;49.964;7.890;2023-07-31T04:01:09;19.20;1.00
15296;DHT22;7749;49.964;7.890;2023-07-31T04:03:36;19.10;1.00
15296;DHT22;7749;49.964;7.890;2023-07-31T04:06:04;19.10;1.00
15296;DHT22;7749;49.964;7.890;2023-07-31T04:08:31;19.10;1.00
15296;DHT22;7749;49.964;7.890;2023-07-31T04:10:58;19.00;1.00
15296;DHT22;7749;49.964;7.890;2023-07-31T04:13:26;18.90;1.00
15296;DHT22;7749;49.964;7.890;2023-07-31T04:15:54;18.90;1.00
15296;DHT22;7749;49.964;7.890;2023-07-31T04:18:24;18.90;1.00
15296;DHT22;7749;49.964;7.890;2023-07-31T04:20:51;18.90;1.00
15296;DHT22;7749;49.964;7.890;2023-07-31T04:23:19;18.80;1.00
15296;DHT22;7749;49.964;7.890;2023-07-31T04:25:46;18.90;1.00
15296;DHT22;7749;49.964;7.890;2023-07-31T04:28:14;18.90;1.00
15296;DHT22;7749;49.964;7.890;2023-07-31T04:30:41;18.80;1.00
15296;DHT22;7749;49.964;7.890;2023-07-31T04:33:09;18.80;1.00
15296;DHT22;7749;49.964;7.890;2023-07-31T04:35:36;18.80;1.00
15296;DHT22;7749;49.964;7.890;2023-07-31T04:38:04;18.80;1.00
15296;DHT22;7749;49.964;7.890;2023-07-31T04:40:31;18.90;1.00
15296;DHT22;7749;49.964;7.890;2023-07-31T04:42:59;18.90;1.00
15296;DHT22;7749;49.964;7.890;2023-07-31T04:45:26;18.90;1.00
15296;DHT22;7749;49.964;7.890;2023-07-31T04:47:54;18.90;1.00
15296;DHT22;7749;49.964;7.890;2023-07-31T04:50:21;18.90;1.00
15296;DHT22;7749;49.964;7.890;2023-07-31T04:52:48;19.00;1.00
15296;DHT22;7749;49.964;7.890;2023-07-31T04:55:16;19.10;1.00
15296;DHT22;7749;49.964;7.890;2023-07-31T04:57:43;19.10;1.00
15296;DHT22;7749;49.964;7.890;2023-07-31T05:00:11;19.10;1.00
15296;DHT22;7749;49.964;7.890;2023-07-31T05:02:38;19.20;1.00
15296;DHT22;7749;49.964;7.890;2023-07-31T05:05:06;19.10;1.00
15296;DHT22;7749;49.964;7.890;2023-07-31T05:07:34;19.20;1.00
15296;DHT22;7749;49.964;7.890;2023-07-31T05:10:01;19.20;1.00
15296;DHT22;7749;49.964;7.890;2023-07-31T05:12:29;19.20;1.00
15296;DHT22;7749;49.964;7.890;2023-07-31T05:14:56;19.20;1.00
15296;DHT22;7749;49.964;7.890;2023-07-31T05:17:23;19.20;1.00
15296;DHT22;7749;49.964;7.890;2023-07-31T05:19:51;19.20;1.00
15296;DHT22;7749;49.964;7.890;2023-07-31T05:22:18;19.30;1.00
15296;DHT22;7749;49.964;7.890;2023-07-31T05:24:46;19.30;1.00
15296;DHT22;7749;49.964;7.890;2023-07-31T05:27:13;19.30;1.00
15296;DHT22;7749;49.964;7.890;2023-07-31T05:29:45;19.40;1.00
15296;DHT22;7749;49.964;7.890;2023-07-31T05:32:13;19.50;1.00
15296;DHT22;7749;49.964;7.890;2023-07-31T05:34:40;19.50;1.00
15296;DHT22;7749;49.964;7.890;2023-07-31T05:37:10;19.50;1.00
15296;DHT22;7749;49.964;7.890;2023-07-31T05:39:38;19.60;1.00
15296;DHT22;7749;49.964;7.890;2023-07-31T05:42:05;19.60;1.00
15296;DHT22;7749;49.964;7.890;2023-07-31T05:44:34;19.70;1.00
15296;DHT22;7749;49.964;7.890;2023-07-31T05:47:01;19.80;1.00
15296;DHT22;7749;49.964;7.890;2023-07-31T05:49:29;19.80;1.00
15296;DHT22;7749;49.964;7.890;2023-07-31T05:51:56;19.90;1.00
15296;DHT22;7749;49.964;7.890;2023-07-31T05:54:24;20.00;1.00
15296;DHT22;7749;49.964;7.890;2023-07-31T05:56:51;20.10;1.00
15296;DHT22;7749;49.964;7.890;2023-07-31T05:59:19;20.10;1.00
15296;DHT22;7749;49.964;7.890;2023-07-31T06:01:46;20.30;1.00
15296;DHT22;7749;49.964;7.890;2023-07-31T06:04:14;20.50;99.90
15296;DHT22;7749;49.964;7.890;2023-07-31T06:06:41;20.70;99.90
15296;DHT22;7749;49.964;7.890;2023-07-31T06:09:09;20.70;1.00
15296;DHT22;7749;49.964;7.890;2023-07-31T06:11:36;20.70;99.90
15296;DHT22;7749;49.964;7.890;2023-07-31T06:14:04;20.90;99.90
15296;DHT22;7749;49.964;7.890;2023-07-31T06:16:31;20.90;99.90
15296;DHT22;7749;49.964;7.890;2023-07-31T06:18:59;20.90;1.00
15296;DHT22;7749;49.964;7.890;2023-07-31T06:22:05;20.80;1.00
15296;DHT22;7749;49.964;7.890;2023-07-31T06:24:50;20.80;99.90
15296;DHT22;7749;49.964;7.890;2023-07-31T06:27:17;20.70;99.90
15296;DHT22;7749;49.964;7.890;2023-07-31T06:29:45;20.70;99.90
15296;DHT22;7749;49.964;7.890;2023-07-31T06:32:12;20.80;99.90
15296;DHT22;7749;49.964;7.890;2023-07-31T06:34:40;20.90;14.90
15296;DHT22;7749;49.964;7.890;2023-07-31T06:37:07;21.20;1.00
15296;DHT22;7749;49.964;7.890;2023-07-31T06:39:35;21.40;1.00
15296;DHT22;7749;49.964;7.890;2023-07-31T06:42:02;21.50;99.90
15296;DHT22;7749;49.964;7.890;2023-07-31T06:44:30;21.70;99.90
15296;DHT22;7749;49.964;7.890;2023-07-31T06:46:57;21.80;59.60
15296;DHT22;7749;49.964;7.890;2023-07-31T06:49:25;22.10;99.90
15296;DHT22;7749;49.964;7.890;2023-07-31T06:51:52;22.10;99.90
15296;DHT22;7749;49.964;7.890;2023-07-31T06:54:20;22.10;99.90
15296;DHT22;7749;49.964;7.890;2023-07-31T06:56:47;22.00;99.90
15296;DHT22;7749;49.964;7.890;2023-07-31T06:59:14;21.90;99.90
15296;DHT22;7749;49.964;7.890;2023-07-31T07:01:42;21.90;99.90
15296;DHT22;7749;49.964;7.890;2023-07-31T07:04:10;21.90;99.90
15296;DHT22;7749;49.964;7.890;2023-07-31T07:06:37;22.00;99.90
15296;DHT22;7749;49.964;7.890;2023-07-31T07:09:05;22.20;99.90
15296;DHT22;7749;49.964;7.890;2023-07-31T07:11:33;22.30;99.90
15296;DHT22;7749;49.964;7.890;2023-07-31T07:14:01;22.40;99.90
15296;DHT22;7749;49.964;7.890;2023-07-31T07:16:29;22.40;99.90
15296;DHT22;7749;49.964;7.890;2023-07-31T07:18:56;22.50;99.90
15296;DHT22;7749;49.964;7.890;2023-07-31T07:21:31;22.50;99.90
15296;DHT22;7749;49.964;7.890;2023-07-31T07:23:58;22.40;99.90
15296;DHT22;7749;49.964;7.890;2023-07-31T07:26:26;22.20;99.90
15296;DHT22;7749;49.964;7.890;2023-07-31T07:28:53;22.00;99.90
15296;DHT22;7749;49.964;7.890;2023-07-31T07:31:21;22.00;99.90
15296;DHT22;7749;49.964;7.890;2023-07-31T07:33:49;21.80;99.90
15296;DHT22;7749;49.964;7.890;2023-07-31T07:36:16;21.90;99.90
15296;DHT22;7749;49.964;7.890;2023-07-31T07:38:43;21.50;99.90
15296;DHT22;7749;49.964;7.890;2023-07-31T07:41:11;21.60;99.90
15296;DHT22;7749;49.964;7.890;2023-07-31T07:43:38;21.80;99.90
15296;DHT22;7749;49.964;7.890;2023-07-31T07:46:06;22.00;99.90
15296;DHT22;7749;49.964;7.890;2023-07-31T07:48:33;21.80;99.90
15296;DHT22;7749;49.964;7.890;2023-07-31T07:51:01;21.70;99.90
15296;DHT22;7749;49.964;7.890;2023-07-31T07:53:28;22.00;1.00
15296;DHT22;7749;49.964;7.890;2023-07-31T07:55:56;21.90;99.90
15296;DHT22;7749;49.964;7.890;2023-07-31T07:58:23;22.00;99.90
15296;DHT22;7749;49.964;7.890;2023-07-31T08:00:51;22.20;99.90
15296;DHT22;7749;49.964;7.890;2023-07-31T08:03:19;22.10;99.90
15296;DHT22;7749;49.964;7.890;2023-07-31T08:05:47;22.10;99.90
15296;DHT22;7749;49.964;7.890;2023-07-31T08:08:15;22.40;99.90
15296;DHT22;7749;49.964;7.890;2023-07-31T08:10:47;22.70;99.90
15296;DHT22;7749;49.964;7.890;2023-07-31T08:13:14;22.70;99.90
15296;DHT22;7749;49.964;7.890;2023-07-31T08:15:42;22.70;99.90
15296;DHT22;7749;49.964;7.890;2023-07-31T08:18:10;22.80;99.90
15296;DHT22;7749;49.964;7.890;2023-07-31T08:20:41;22.60;99.90
15296;DHT22;7749;49.964;7.890;2023-07-31T08:23:08;22.30;99.90
15296;DHT22;7749;49.964;7.890;2023-07-31T08:25:36;22.20;99.90
15296;DHT22;7749;49.964;7.890;2023-07-31T08:28:05;22.40;99.90
15296;DHT22;7749;49.964;7.890;2023-07-31T08:30:33;22.80;99.90
15296;DHT22;7749;49.964;7.890;2023-07-31T08:33:00;23.00;99.90
15296;DHT22;7749;49.964;7.890;2023-07-31T08:35:28;22.60;99.90
15296;DHT22;7749;49.964;7.890;2023-07-31T08:38:01;22.40;99.90
15296;DHT22;7749;49.964;7.890;2023-07-31T08:40:29;22.80;99.90
15296;DHT22;7749;49.964;7.890;2023-07-31T08:42:56;22.90;99.90
15296;DHT22;7749;49.964;7.890;2023-07-31T08:45:26;22.70;99.90
15296;DHT22;7749;49.964;7.890;2023-07-31T08:47:54;22.90;99.90
15296;DHT22;7749;49.964;7.890;2023-07-31T08:50:23;22.70;99.90
15296;DHT22;7749;49.964;7.890;2023-07-31T08:52:51;22.80;99.90
15296;DHT22;7749;49.964;7.890;2023-07-31T08:55:19;23.30;99.90
15296;DHT22;7749;49.964;7.890;2023-07-31T08:57:52;23.40;99.90
15296;DHT22;7749;49.964;7.890;2023-07-31T09:00:21;23.40;99.90
15296;DHT22;7749;49.964;7.890;2023-07-31T09:02:59;23.00;99.90
15296;DHT22;7749;49.964;7.890;2023-07-31T09:05:30;23.10;99.90
15296;DHT22;7749;49.964;7.890;2023-07-31T09:07:58;23.20;99.90
15296;DHT22;7749;49.964;7.890;2023-07-31T09:10:25;23.40;99.90
15296;DHT22;7749;49.964;7.890;2023-07-31T09:12:53;23.10;99.90
15296;DHT22;7749;49.964;7.890;2023-07-31T09:15:21;23.30;99.90
15296;DHT22;7749;49.964;7.890;2023-07-31T09:18:05;23.40;99.90
15296;DHT22;7749;49.964;7.890;2023-07-31T09:20:33;23.60;99.90
15296;DHT22;7749;49.964;7.890;2023-07-31T09:23:09;23.40;99.90
15296;DHT22;7749;49.964;7.890;2023-07-31T09:25:37;23.40;99.90
15296;DHT22;7749;49.964;7.890;2023-07-31T09:28:09;23.20;99.90
15296;DHT22;7749;49.964;7.890;2023-07-31T09:31:03;23.50;99.90
15296;DHT22;7749;49.964;7.890;2023-07-31T09:33:30;23.90;99.90
15296;DHT22;7749;49.964;7.890;2023-07-31T09:35:59;23.70;99.90
15296;DHT22;7749;49.964;7.890;2023-07-31T09:38:27;23.90;99.90
15296;DHT22;7749;49.964;7.890;2023-07-31T09:40:55;24.00;99.90
15296;DHT22;7749;49.964;7.890;2023-07-31T09:43:25;23.80;99.90
15296;DHT22;7749;49.964;7.890;2023-07-31T09:45:56;23.90;99.90
15296;DHT22;7749;49.964;7.890;2023-07-31T09:48:24;23.90;99.90
15296;DHT22;7749;49.964;7.890;2023-07-31T09:50:55;23.80;99.90
15296;DHT22;7749;49.964;7.890;2023-07-31T09:53:28;23.50;99.90
15296;DHT22;7749;49.964;7.890;2023-07-31T09:55:59;23.10;99.90
15296;DHT22;7749;49.964;7.890;2023-07-31T09:58:29;23.00;99.90
15296;DHT22;7749;49.964;7.890;2023-07-31T10:00:58;23.10;99.90
15296;DHT22;7749;49.964;7.890;2023-07-31T10:03:27;23.10;99.90
15296;DHT22;7749;49.964;7.890;2023-07-31T10:05:58;23.40;99.90
15296;DHT22;7749;49.964;7.890;2023-07-31T10:08:30;23.40;99.90
15296;DHT22;7749;49.964;7.890;2023-07-31T10:11:00;23.70;99.90
15296;DHT22;7749;49.964;7.890;2023-07-31T10:13:30;23.90;99.90
15296;DHT22;7749;49.964;7.890;2023-07-31T10:15:59;24.30;99.90
15296;DHT22;7749;49.964;7.890;2023-07-31T10:18:28;24.20;99.90
15296;DHT22;7749;49.964;7.890;2023-07-31T10:20:57;24.30;99.90
15296;DHT22;7749;49.964;7.890;2023-07-31T10:23:24;24.50;99.90
15296;DHT22;7749;49.964;7.890;2023-07-31T10:25:57;24.50;99.90
15296;DHT22;7749;49.964;7.890;2023-07-31T10:28:26;24.50;99.90
15296;DHT22;7749;49.964;7.890;2023-07-31T10:30:54;24.90;99.90
15296;DHT22;7749;49.964;7.890;2023-07-31T10:33:22;25.40;99.90
15296;DHT22;7749;49.964;7.890;2023-07-31T10:35:50;25.00;99.90
15296;DHT22;7749;49.964;7.890;2023-07-31T10:38:23;25.10;99.90
15296;DHT22;7749;49.964;7.890;2023-07-31T10:40:51;25.50;99.90
15296;DHT22;7749;49.964;7.890;2023-07-31T10:43:25;25.50;99.90
15296;DHT22;7749;49.964;7.890;2023-07-31T10:45:57;25.50;99.90
15296;DHT22;7749;49.964;7.890;2023-07-31T10:48:24;25.70;99.90
15296;DHT22;7749;49.964;7.890;2023-07-31T10:50:59;25.50;99.90
15296;DHT22;7749;49.964;7.890;2023-07-31T10:53:31;25.80;99.90
15296;DHT22;7749;49.964;7.890;2023-07-31T10:56:09;25.60;99.90
15296;DHT22;7749;49.964;7.890;2023-07-31T10:58:39;25.60;99.90
15296;DHT22;7749;49.964;7.890;2023-07-31T11:01:10;25.90;99.90
15296;DHT22;7749;49.964;7.890;2023-07-31T11:03:46;25.70;99.90
15296;DHT22;7749;49.964;7.890;2023-07-31T11:06:15;25.50;99.90
15296;DHT22;7749;49.964;7.890;2023-07-31T11:08:49;25.20;99.90
15296;DHT22;7749;49.964;7.890;2023-07-31T11:11:18;25.10;99.90
15296;DHT22;7749;49.964;7.890;2023-07-31T11:13:48;25.20;99.90
15296;DHT22;7749;49.964;7.890;2023-07-31T11:16:21;25.30;99.90
15296;DHT22;7749;49.964;7.890;2023-07-31T11:18:50;25.20;99.90
15296;DHT22;7749;49.964;7.890;2023-07-31T11:21:20;25.80;99.90
15296;DHT22;7749;49.964;7.890;2023-07-31T11:23:50;26.00;99.90
15296;DHT22;7749;49.964;7.890;2023-07-31T11:26:18;26.90;99.90
15296;DHT22;7749;49.964;7.890;2023-07-31T11:28:47;27.60;99.90
15296;DHT22;7749;49.964;7.890;2023-07-31T11:31:15;27.40;99.50
15296;DHT22;7749;49.964;7.890;2023-07-31T11:33:43;27.00;98.30
15296;DHT22;7749;49.964;7.890;2023-07-31T11:36:18;26.50;99.90
15296;DHT22;7749;49.964;7.890;2023-07-31T11:38:46;26.50;99.80
15296;DHT22;7749;49.964;7.890;2023-07-31T11:41:15;26.80;99.20
15296;DHT22;7749;49.964;7.890;2023-07-31T11:43:44;25.90;99.90
15296;DHT22;7749;49.964;7.890;2023-07-31T11:46:13;25.20;99.90
15296;DHT22;7749;49.964;7.890;2023-07-31T11:48:42;25.40;99.90
15296;DHT22;7749;49.964;7.890;2023-07-31T11:51:12;24.90;99.90
15296;DHT22;7749;49.964;7.890;2023-07-31T11:56:11;24.40;99.90
15296;DHT22;7749;49.964;7.890;2023-07-31T11:58:40;24.40;99.90
15296;DHT22;7749;49.964;7.890;2023-07-31T12:01:08;24.40;99.90
15296;DHT22;7749;49.964;7.890;2023-07-31T12:03:36;24.80;99.90
15296;DHT22;7749;49.964;7.890;2023-07-31T12:06:04;25.00;99.90
15296;DHT22;7749;49.964;7.890;2023-07-31T12:08:31;25.20;99.90
15296;DHT22;7749;49.964;7.890;2023-07-31T12:11:07;25.50;99.90
15296;DHT22;7749;49.964;7.890;2023-07-31T12:13:37;25.20;99.90
15296;DHT22;7749;49.964;7.890;2023-07-31T12:16:04;25.20;99.90
15296;DHT22;7749;49.964;7.890;2023-07-31T12:18:36;25.00;99.90
15296;DHT22;7749;49.964;7.890;2023-07-31T12:21:06;25.80;99.90
15296;DHT22;7749;49.964;7.890;2023-07-31T12:23:36;26.90;99.90
15296;DHT22;7749;49.964;7.890;2023-07-31T12:28:46;28.70;96.80
15296;DHT22;7749;49.964;7.890;2023-07-31T12:31:16;29.30;94.10
15296;DHT22;7749;49.964;7.890;2023-07-31T12:33:48;30.00;93.10
15296;DHT22;7749;49.964;7.890;2023-07-31T12:36:19;29.50;92.50
15296;DHT22;7749;49.964;7.890;2023-07-31T12:38:47;29.30;92.40
15296;DHT22;7749;49.964;7.890;2023-07-31T12:41:16;29.70;92.80
15296;DHT22;7749;49.964;7.890;2023-07-31T12:43:45;30.40;91.50
15296;DHT22;7749;49.964;7.890;2023-07-31T12:46:12;31.30;87.40
15296;DHT22;7749;49.964;7.890;2023-07-31T12:48:40;30.40;88.30
15296;DHT22;7749;49.964;7.890;2023-07-31T12:51:08;29.60;90.40
15296;DHT22;7749;49.964;7.890;2023-07-31T12:53:36;30.20;89.70
15296;DHT22;7749;49.964;7.890;2023-07-31T12:56:04;29.70;89.40
15296;DHT22;7749;49.964;7.890;2023-07-31T12:58:32;29.10;90.60
15296;DHT22;7749;49.964;7.890;2023-07-31T13:00:59;28.40;91.30
15296;DHT22;7749;49.964;7.890;2023-07-31T13:03:26;28.80;91.30
15296;DHT22;7749;49.964;7.890;2023-07-31T13:05:54;28.80;91.10
15296;DHT22;7749;49.964;7.890;2023-07-31T13:08:22;28.10;92.00
15296;DHT22;7749;49.964;7.890;2023-07-31T13:10:49;26.80;93.60
15296;DHT22;7749;49.964;7.890;2023-07-31T13:13:17;26.00;96.00
15296;DHT22;7749;49.964;7.890;2023-07-31T13:15:44;25.50;96.60
15296;DHT22;7749;49.964;7.890;2023-07-31T13:18:12;25.20;97.90
15296;DHT22;7749;49.964;7.890;2023-07-31T13:20:40;25.20;98.20
15296;DHT22;7749;49.964;7.890;2023-07-31T13:23:07;25.10;98.80
15296;DHT22;7749;49.964;7.890;2023-07-31T13:25:35;25.10;98.90
15296;DHT22;7749;49.964;7.890;2023-07-31T13:28:02;24.80;99.90
15296;DHT22;7749;49.964;7.890;2023-07-31T13:30:30;24.00;99.90
15296;DHT22;7749;49.964;7.890;2023-07-31T13:32:58;24.00;99.90
15296;DHT22;7749;49.964;7.890;2023-07-31T13:35:25;23.60;99.90
15296;DHT22;7749;49.964;7.890;2023-07-31T13:37:53;23.40;1.00
15296;DHT22;7749;49.964;7.890;2023-07-31T13:40:21;23.40;99.90
15296;DHT22;7749;49.964;7.890;2023-07-31T13:42:49;23.20;1.00
15296;DHT22;7749;49.964;7.890;2023-07-31T13:45:16;23.10;99.90
15296;DHT22;7749;49.964;7.890;2023-07-31T13:47:43;23.10;1.00
15296;DHT22;7749;49.964;7.890;2023-07-31T13:50:11;23.00;99.90
15296;DHT22;7749;49.964;7.890;2023-07-31T13:52:38;23.10;99.90
15296;DHT22;7749;49.964;7.890;2023-07-31T13:55:06;23.30;1.00
15296;DHT22;7749;49.964;7.890;2023-07-31T13:57:34;23.30;56.20
15296;DHT22;7749;49.964;7.890;2023-07-31T14:00:02;23.40;97.50
15296;DHT22;7749;49.964;7.890;2023-07-31T14:02:30;23.40;99.90
15296;DHT22;7749;49.964;7.890;2023-07-31T14:04:57;23.20;99.90
15296;DHT22;7749;49.964;7.890;2023-07-31T14:07:25;23.10;99.90
15296;DHT22;7749;49.964;7.890;2023-07-31T14:09:52;23.20;99.90
15296;DHT22;7749;49.964;7.890;2023-07-31T14:12:20;23.50;99.90
15296;DHT22;7749;49.964;7.890;2023-07-31T14:15:07;23.80;99.90
15296;DHT22;7749;49.964;7.890;2023-07-31T14:17:35;23.80;99.90
15296;DHT22;7749;49.964;7.890;2023-07-31T14:20:03;23.40;99.90
15296;DHT22;7749;49.964;7.890;2023-07-31T14:22:31;23.30;99.90
15296;DHT22;7749;49.964;7.890;2023-07-31T14:25:02;23.50;99.90
15296;DHT22;7749;49.964;7.890;2023-07-31T14:27:29;23.50;99.90
15296;DHT22;7749;49.964;7.890;2023-07-31T14:29:56;23.60;99.90
15296;DHT22;7749;49.964;7.890;2023-07-31T14:32:24;23.50;99.90
15296;DHT22;7749;49.964;7.890;2023-07-31T14:34:53;23.70;99.90
15296;DHT22;7749;49.964;7.890;2023-07-31T14:37:21;23.80;99.90
15296;DHT22;7749;49.964;7.890;2023-07-31T14:39:49;23.80;99.90
15296;DHT22;7749;49.964;7.890;2023-07-31T14:42:18;24.00;99.90
15296;DHT22;7749;49.964;7.890;2023-07-31T14:44:46;23.70;99.90
15296;DHT22;7749;49.964;7.890;2023-07-31T14:47:14;24.20;99.90
15296;DHT22;7749;49.964;7.890;2023-07-31T14:49:41;24.40;99.90
15296;DHT22;7749;49.964;7.890;2023-07-31T14:52:09;24.20;99.90
15296;DHT22;7749;49.964;7.890;2023-07-31T14:54:37;23.80;99.90
15296;DHT22;7749;49.964;7.890;2023-07-31T14:57:07;24.00;99.90
15296;DHT22;7749;49.964;7.890;2023-07-31T14:59:35;23.70;99.90
15296;DHT22;7749;49.964;7.890;2023-07-31T15:02:02;23.40;99.90
15296;DHT22;7749;49.964;7.890;2023-07-31T15:04:30;23.20;99.90
15296;DHT22;7749;49.964;7.890;2023-07-31T15:06:57;23.00;99.90
15296;DHT22;7749;49.964;7.890;2023-07-31T15:09:25;22.60;99.90
15296;DHT22;7749;49.964;7.890;2023-07-31T15:11:53;22.70;99.90
15296;DHT22;7749;49.964;7.890;2023-07-31T15:14:20;22.70;99.90
15296;DHT22;7749;49.964;7.890;2023-07-31T15:16:47;22.70;99.90
15296;DHT22;7749;49.964;7.890;2023-07-31T15:19:15;22.60;99.90
15296;DHT22;7749;49.964;7.890;2023-07-31T15:21:43;22.60;99.90
15296;DHT22;7749;49.964;7.890;2023-07-31T15:24:10;22.30;99.90
15296;DHT22;7749;49.964;7.890;2023-07-31T15:26:38;22.30;99.90
15296;DHT22;7749;49.964;7.890;2023-07-31T15:29:06;22.20;99.90
15296;DHT22;7749;49.964;7.890;2023-07-31T15:31:39;22.30;99.90
15296;DHT22;7749;49.964;7.890;2023-07-31T15:34:06;22.10;99.90
15296;DHT22;7749;49.964;7.890;2023-07-31T15:36:34;22.10;99.90
15296;DHT22;7749;49.964;7.890;2023-07-31T15:39:01;22.40;99.90
15296;DHT22;7749;49.964;7.890;2023-07-31T15:41:29;22.60;99.90
15296;DHT22;7749;49.964;7.890;2023-07-31T15:43:56;22.30;99.90
15296;DHT22;7749;49.964;7.890;2023-07-31T15:46:24;22.10;99.90
15296;DHT22;7749;49.964;7.890;2023-07-31T15:48:52;22.00;99.90
15296;DHT22;7749;49.964;7.890;2023-07-31T15:51:20;22.00;99.90
15296;DHT22;7749;49.964;7.890;2023-07-31T15:53:48;22.20;99.90
15296;DHT22;7749;49.964;7.890;2023-07-31T15:56:16;22.30;99.90
15296;DHT22;7749;49.964;7.890;2023-07-31T15:58:43;22.40;99.90
15296;DHT22;7749;49.964;7.890;2023-07-31T16:01:11;22.40;99.90
15296;DHT22;7749;49.964;7.890;2023-07-31T16:03:39;22.30;99.90
15296;DHT22;7749;49.964;7.890;2023-07-31T16:06:06;22.30;99.90
15296;DHT22;7749;49.964;7.890;2023-07-31T16:08:34;22.40;99.90
15296;DHT22;7749;49.964;7.890;2023-07-31T16:11:08;22.20;99.90